Roadside, Pennsylvania
Current Conditions -  °F | °C
As of 3:53 AM on Friday 24 Oct 2014 (Local Time) from KHGR Reporting Station
Clear Clear  
Wind Chill: 11°   Ceiling: Unl
Heat Index: 11°   Visibility: 10mi
Dew Point:   Wind: 8mph
Humidity: 66%   Direction: 340°NNW
Pressure: 29.95"   Gusts: NA
Location:  39.7777°N, 77.5693°W
Report Text: KHGR 240753Z AUTO 34007KT 10SM CLR 11/05 A2995 RMK AO2 SLP152 T01110050
Loading
Personal Weather Stations






























Interactive Weather Map
Tropical Storm Tracking
New forecast layout! Learn more

10-Day Weather Forecast

Advertisements
Track Severe Weather on mobile